Time;durP1;ratioP1;P1;durP2;ratioP2;P2;SDS_P1;SDS_P2;PMS_P1;PMS_P2;Temp;Humidity;BMP_temperature;BMP_pressure;BME280_temperature;BME280_humidity;BME280_pressure;Samples;Min_cycle;Max_cycle;Signal;HPM_P1;HPM_P2
2024/01/06 00:02:31;;;;;;;19.88;13.30;;;;;;;7.29;100.00;100202.13;5120072;27;20053;-68
2024/01/06 00:05:19;;;;;;;16.45;13.40;;;;;;;7.28;100.00;100205.91;5121144;27;20559;-68
2024/01/06 00:08:08;;;;;;;19.50;14.13;;;;;;;7.28;100.00;100211.34;5112984;28;20131;-68
2024/01/06 00:10:56;;;;;;;19.13;13.63;;;;;;;7.21;100.00;100220.50;5099903;27;20093;-69
2024/01/06 00:13:44;;;;;;;17.27;14.13;;;;;;;7.16;100.00;100219.66;5104475;27;20093;-69
2024/01/06 00:16:32;;;;;;;18.92;13.98;;;;;;;7.10;100.00;100224.22;5114897;27;20204;-68
2024/01/06 00:19:20;;;;;;;16.40;13.73;;;;;;;7.10;100.00;100215.28;5107060;28;20178;-68
2024/01/06 00:22:08;;;;;;;17.02;13.85;;;;;;;7.04;100.00;100227.97;5114037;28;20495;-70
2024/01/06 00:24:56;;;;;;;16.40;13.43;;;;;;;6.99;100.00;100233.34;5090795;27;20055;-70
2024/01/06 00:27:44;;;;;;;17.60;13.50;;;;;;;6.97;100.00;100239.00;5134521;27;20043;-68
2024/01/06 00:30:32;;;;;;;19.70;13.23;;;;;;;6.98;100.00;100235.25;5120152;27;20120;-69
2024/01/06 00:33:21;;;;;;;16.38;13.25;;;;;;;7.03;100.00;100239.88;5106353;27;20039;-68
2024/01/06 00:36:09;;;;;;;17.83;13.13;;;;;;;7.02;100.00;100236.38;5121362;27;20116;-68
2024/01/06 00:38:57;;;;;;;17.00;13.57;;;;;;;7.02;100.00;100240.94;5121129;27;20086;-69
2024/01/06 00:41:45;;;;;;;16.40;13.23;;;;;;;7.01;100.00;100240.13;5119259;27;20047;-69
2024/01/06 00:44:35;;;;;;;18.08;13.23;;;;;;;7.00;100.00;100238.50;5118144;27;20048;-70
2024/01/06 00:47:24;;;;;;;17.50;13.13;;;;;;;6.98;100.00;100239.84;5099062;28;20051;-69
2024/01/06 00:50:12;;;;;;;15.00;12.77;;;;;;;6.94;100.00;100236.81;5096374;28;20130;-69
2024/01/06 00:53:00;;;;;;;15.85;12.40;;;;;;;6.91;100.00;100239.25;5097686;28;20085;-69
2024/01/06 00:55:48;;;;;;;15.73;12.60;;;;;;;6.92;100.00;100246.28;5110098;27;20035;-71
2024/01/06 00:58:36;;;;;;;16.88;12.48;;;;;;;6.91;100.00;100244.66;5099255;28;20043;-70
2024/01/06 01:01:24;;;;;;;15.98;12.30;;;;;;;6.85;100.00;100248.38;5113738;28;20047;-71
2024/01/06 01:04:12;;;;;;;14.75;12.20;;;;;;;6.85;100.00;100251.09;5098248;28;20115;-69
2024/01/06 01:07:00;;;;;;;16.67;12.32;;;;;;;6.89;100.00;100263.06;5112458;28;20411;-70
2024/01/06 01:09:48;;;;;;;16.98;12.77;;;;;;;6.87;100.00;100268.72;5114183;27;20452;-70
2024/01/06 01:12:37;;;;;;;15.57;12.65;;;;;;;6.87;100.00;100260.59;5133978;27;20046;-72
2024/01/06 01:15:25;;;;;;;15.75;12.25;;;;;;;6.87;100.00;100260.59;5113883;28;20047;-70
2024/01/06 01:18:13;;;;;;;16.45;12.50;;;;;;;6.86;100.00;100266.28;5097651;28;20044;-69
2024/01/06 01:21:01;;;;;;;17.52;13.13;;;;;;;6.86;100.00;100269.00;5100192;27;20487;-68
2024/01/06 01:23:49;;;;;;;15.32;11.77;;;;;;;6.90;100.00;100267.38;5113317;28;20130;-68
2024/01/06 01:26:37;;;;;;;14.95;12.23;;;;;;;6.92;100.00;100278.78;5112021;27;20401;-70
2024/01/06 01:29:25;;;;;;;14.77;12.02;;;;;;;6.93;100.00;100280.44;5111950;28;20467;-69
2024/01/06 01:32:13;;;;;;;14.40;11.85;;;;;;;6.89;100.00;100284.72;5111236;28;20479;-68
2024/01/06 01:35:01;;;;;;;14.32;11.88;;;;;;;6.89;100.00;100290.94;5097545;28;20047;-70
2024/01/06 01:37:49;;;;;;;15.10;12.63;;;;;;;6.90;100.00;100297.16;5096014;28;20066;-70
2024/01/06 01:40:37;;;;;;;14.65;11.98;;;;;;;6.83;100.00;100295.50;5113293;28;20051;-72
2024/01/06 01:43:26;;;;;;;15.70;11.68;;;;;;;6.80;100.00;100298.69;5098117;28;20122;-70
2024/01/06 01:46:14;;;;;;;14.10;11.88;;;;;;;6.78;100.00;100311.72;5107376;27;20051;-70
2024/01/06 01:49:02;;;;;;;15.63;12.40;;;;;;;6.74;100.00;100313.28;5117081;27;20511;-68
2024/01/06 01:51:50;;;;;;;15.10;12.80;;;;;;;6.70;100.00;100314.84;5112429;28;20050;-69
2024/01/06 01:54:38;;;;;;;14.35;11.73;;;;;;;6.72;100.00;100326.25;5076776;28;20063;-69
2024/01/06 01:57:26;;;;;;;11.57;9.68;;;;;;;6.70;100.00;100324.88;5109878;28;20039;-71
2024/01/06 02:00:15;;;;;;;12.73;10.02;;;;;;;6.62;100.00;100326.16;5115690;27;20043;-70
2024/01/06 02:03:04;;;;;;;13.85;10.98;;;;;;;6.61;100.00;100338.88;5097831;28;20122;-68
2024/01/06 02:05:52;;;;;;;11.77;8.80;;;;;;;6.40;100.00;100337.00;5097790;28;20070;-68
2024/01/06 02:08:40;;;;;;;10.10;8.27;;;;;;;6.33;100.00;100341.78;5084450;28;20126;-72
2024/01/06 02:11:28;;;;;;;9.80;8.05;;;;;;;6.33;100.00;100342.59;5083294;28;20046;-71
2024/01/06 02:14:16;;;;;;;11.05;8.00;;;;;;;6.26;100.00;100351.97;5111828;28;20126;-71
2024/01/06 02:17:04;;;;;;;11.52;7.35;;;;;;;6.21;100.00;100355.44;5104804;27;20149;-70
2024/01/06 02:19:52;;;;;;;8.68;6.78;;;;;;;6.15;100.00;100361.81;5117546;27;20047;-69
2024/01/06 02:22:40;;;;;;;9.50;6.80;;;;;;;6.15;100.00;100362.63;5120481;27;20503;-71
2024/01/06 02:25:29;;;;;;;9.07;7.07;;;;;;;6.14;100.00;100368.31;5112303;28;20157;-70
2024/01/06 02:28:17;;;;;;;9.23;6.82;;;;;;;6.13;100.00;100361.25;5112513;28;20050;-68
2024/01/06 02:31:05;;;;;;;8.85;6.38;;;;;;;6.16;100.00;100369.69;5133090;28;20084;-69
2024/01/06 02:33:53;;;;;;;8.20;6.47;;;;;;;6.15;100.00;100369.94;5078363;28;20040;-70
2024/01/06 02:36:42;;;;;;;8.32;6.40;;;;;;;6.14;100.00;100373.72;5077750;28;20051;-69
2024/01/06 02:39:30;;;;;;;8.30;6.25;;;;;;;6.15;100.00;100383.47;5099960;28;20052;-69
2024/01/06 02:42:18;;;;;;;7.97;5.95;;;;;;;6.17;100.00;100382.13;5096577;28;20408;-70
2024/01/06 02:45:08;;;;;;;7.75;5.82;;;;;;;6.09;100.00;100389.88;5132625;28;20189;-69
2024/01/06 02:47:56;;;;;;;7.65;5.32;;;;;;;6.08;100.00;100388.22;5132635;28;20035;-69
2024/01/06 02:50:44;;;;;;;7.40;5.60;;;;;;;6.09;100.00;100385.28;5131411;28;20051;-73
2024/01/06 02:53:32;;;;;;;8.02;5.70;;;;;;;6.10;100.00;100394.22;5083168;28;20039;-69
2024/01/06 02:56:21;;;;;;;7.55;5.88;;;;;;;6.11;100.00;100404.78;5063908;28;20044;-69
2024/01/06 02:59:09;;;;;;;6.95;5.13;;;;;;;6.13;100.00;100402.66;5092555;28;20044;-70
2024/01/06 03:01:57;;;;;;;7.40;5.43;;;;;;;6.12;100.00;100405.59;5063105;28;20048;-70
2024/01/06 03:04:45;;;;;;;7.63;5.72;;;;;;;6.14;100.00;100411.59;5112451;28;20071;-70
2024/01/06 03:07:33;;;;;;;10.80;6.22;;;;;;;6.13;100.00;100413.47;5108985;28;20058;-70
2024/01/06 03:10:21;;;;;;;7.57;5.65;;;;;;;6.13;100.00;100415.34;5111935;28;20043;-69
2024/01/06 03:13:09;;;;;;;8.05;5.97;;;;;;;6.15;100.00;100426.75;5112431;28;20042;-70
2024/01/06 03:15:57;;;;;;;8.27;6.00;;;;;;;6.10;100.00;100432.88;5100718;28;20411;-71
2024/01/06 03:18:46;;;;;;;8.93;5.60;;;;;;;6.05;100.00;100437.41;5092870;28;20052;-71
2024/01/06 03:21:36;;;;;;;7.72;5.75;;;;;;;6.00;100.00;100435.44;5077588;28;20052;-71
2024/01/06 03:24:25;;;;;;;8.00;5.80;;;;;;;5.96;100.00;100434.28;5095567;28;20064;-71
2024/01/06 03:27:13;;;;;;;8.02;5.70;;;;;;;6.00;100.00;100440.03;5100860;28;20043;-69
2024/01/06 03:30:01;;;;;;;9.05;6.00;;;;;;;6.01;100.00;100445.19;5100511;28;20510;-70
2024/01/06 03:32:49;;;;;;;7.40;5.63;;;;;;;5.87;100.00;100447.41;5079772;28;20415;-69
2024/01/06 03:35:37;;;;;;;8.65;5.25;;;;;;;5.83;100.00;100458.94;5110957;27;20148;-69
2024/01/06 03:38:25;;;;;;;8.43;5.40;;;;;;;5.86;100.00;100451.16;5116630;28;20051;-69
2024/01/06 03:41:13;;;;;;;8.18;6.05;;;;;;;5.93;100.00;100451.00;5118814;27;20085;-68
2024/01/06 03:44:01;;;;;;;7.40;5.43;;;;;;;5.94;100.00;100458.91;5135258;28;20067;-72
2024/01/06 03:46:49;;;;;;;7.40;5.10;;;;;;;5.93;100.00;100470.72;5117800;28;20115;-69
2024/01/06 03:49:37;;;;;;;5.22;4.25;;;;;;;5.87;100.00;100465.47;5118076;28;20039;-68
2024/01/06 03:52:25;;;;;;;5.03;3.67;;;;;;;5.74;100.00;100464.75;5125811;28;20097;-73
2024/01/06 03:55:13;;;;;;;3.95;3.55;;;;;;;5.74;100.00;100463.94;5144445;27;20073;-73
2024/01/06 03:58:01;;;;;;;5.55;3.78;;;;;;;5.75;100.00;100476.41;5084316;28;20062;-71
2024/01/06 04:00:49;;;;;;;5.07;4.10;;;;;;;5.76;100.00;100475.31;5080503;28;20515;-70
2024/01/06 04:03:40;;;;;;;6.68;4.90;;;;;;;5.68;100.00;100478.44;5095027;28;20051;-69
2024/01/06 04:06:28;;;;;;;7.82;5.43;;;;;;;5.67;100.00;100482.19;5091481;28;21014;-71
2024/01/06 04:09:16;;;;;;;7.10;5.45;;;;;;;5.72;100.00;100483.13;5115225;28;20384;-71
2024/01/06 04:12:06;;;;;;;7.65;5.60;;;;;;;5.75;100.00;100484.50;5113591;28;20511;-69
2024/01/06 04:14:54;;;;;;;8.48;5.65;;;;;;;5.76;100.00;100483.44;5111062;28;20074;-68
2024/01/06 04:17:42;;;;;;;9.00;5.75;;;;;;;5.79;100.00;100488.34;5094867;28;20104;-69
2024/01/06 04:20:31;;;;;;;10.18;6.22;;;;;;;5.85;100.00;100487.38;5115537;27;20177;-69
2024/01/06 04:23:19;;;;;;;8.23;5.68;;;;;;;5.82;100.00;100487.03;5114150;28;20109;-68
2024/01/06 04:26:10;;;;;;;8.82;6.00;;;;;;;5.82;100.00;100492.44;5103277;28;20047;-69
2024/01/06 04:28:58;;;;;;;7.35;5.38;;;;;;;5.85;100.00;100486.56;5097279;28;20043;-68
2024/01/06 04:31:46;;;;;;;9.52;6.07;;;;;;;5.81;100.00;100497.03;5098807;28;20070;-68
2024/01/06 04:34:34;;;;;;;9.30;6.85;;;;;;;5.84;100.00;100499.22;5114297;27;20063;-69
2024/01/06 04:37:22;;;;;;;7.50;5.80;;;;;;;5.86;100.00;100499.81;5096933;28;20036;-70
2024/01/06 04:40:11;;;;;;;9.73;6.18;;;;;;;5.85;100.00;100503.59;5114311;28;20127;-68
2024/01/06 04:42:59;;;;;;;8.43;6.47;;;;;;;5.85;100.00;100508.19;5114098;28;20057;-69
2024/01/06 04:45:47;;;;;;;7.97;6.10;;;;;;;5.84;100.00;100511.94;5078980;28;20059;-69
2024/01/06 04:48:35;;;;;;;9.25;6.28;;;;;;;5.75;100.00;100516.94;5078811;28;20044;-69
2024/01/06 04:51:23;;;;;;;10.13;6.72;;;;;;;5.71;100.00;100521.19;5103449;28;20036;-68
2024/01/06 04:54:11;;;;;;;8.75;6.75;;;;;;;5.70;100.00;100522.22;5084656;28;20096;-69
2024/01/06 04:56:59;;;;;;;10.10;7.28;;;;;;;5.73;100.00;100532.59;5112469;28;20047;-69
2024/01/06 04:59:47;;;;;;;10.10;7.30;;;;;;;5.70;100.00;100528.47;5113135;28;20047;-69
2024/01/06 05:02:35;;;;;;;9.88;7.60;;;;;;;5.66;100.00;100534.63;5113736;28;20148;-71
2024/01/06 05:05:23;;;;;;;8.70;7.05;;;;;;;5.69;100.00;100542.22;5084702;28;20341;-71
2024/01/06 05:08:11;;;;;;;9.48;7.22;;;;;;;5.70;100.00;100539.28;5103562;28;20040;-69
2024/01/06 05:11:00;;;;;;;8.57;6.85;;;;;;;5.76;100.00;100545.59;5098786;27;20096;-70
2024/01/06 05:13:48;;;;;;;8.88;6.80;;;;;;;5.77;100.00;100544.53;5113639;28;20188;-69
2024/01/06 05:16:36;;;;;;;9.10;6.68;;;;;;;5.76;100.00;100545.59;5112723;28;20151;-69
2024/01/06 05:19:24;;;;;;;10.70;6.18;;;;;;;5.76;100.00;100549.13;5097498;28;20109;-69
2024/01/06 05:22:12;;;;;;;8.73;6.57;;;;;;;5.77;100.00;100555.34;5113709;27;20044;-69
2024/01/06 05:25:00;;;;;;;8.82;6.85;;;;;;;5.76;100.00;100562.63;5084536;28;20052;-68
2024/01/06 05:27:49;;;;;;;9.07;6.70;;;;;;;5.75;100.00;100562.91;5090659;28;20041;-68
2024/01/06 05:30:37;;;;;;;8.88;6.72;;;;;;;5.74;100.00;100561.25;5125161;27;20047;-68
2024/01/06 05:33:25;;;;;;;8.95;7.03;;;;;;;5.69;100.00;100555.75;5134105;27;20035;-68
2024/01/06 05:36:13;;;;;;;9.80;7.40;;;;;;;5.62;100.00;100561.28;5115328;27;20105;-68
2024/01/06 05:39:01;;;;;;;10.63;7.50;;;;;;;5.60;100.00;100568.00;5098505;28;20048;-68
2024/01/06 05:41:50;;;;;;;10.18;7.97;;;;;;;5.57;100.00;100571.19;5097546;28;20130;-67
2024/01/06 05:44:38;;;;;;;12.00;8.57;;;;;;;5.50;100.00;100580.25;5111504;28;20518;-68
2024/01/06 05:47:26;;;;;;;10.73;8.52;;;;;;;5.52;100.00;100586.25;5110852;28;20500;-68
2024/01/06 05:50:16;;;;;;;10.88;8.13;;;;;;;5.49;100.00;100577.81;5077899;28;20040;-69
2024/01/06 05:53:04;;;;;;;10.43;8.20;;;;;;;5.44;100.00;100583.94;5076948;28;20054;-67
2024/01/06 05:55:52;;;;;;;11.73;8.25;;;;;;;5.39;100.00;100591.94;5092165;28;20044;-67
2024/01/06 05:58:40;;;;;;;9.95;7.95;;;;;;;5.38;100.00;100592.97;5105456;28;20069;-69
2024/01/06 06:01:28;;;;;;;9.65;7.65;;;;;;;5.32;100.00;100608.28;5077265;28;20177;-70
2024/01/06 06:04:16;;;;;;;10.30;8.32;;;;;;;5.23;100.00;100607.00;5093513;28;20040;-68
2024/01/06 06:07:04;;;;;;;10.88;8.52;;;;;;;5.26;100.00;100603.00;5097682;28;20055;-68
2024/01/06 06:09:53;;;;;;;11.77;8.75;;;;;;;5.26;100.00;100608.41;5095707;28;20177;-68
2024/01/06 06:12:41;;;;;;;11.25;9.07;;;;;;;5.22;100.00;100612.63;5112207;28;20039;-68
2024/01/06 06:15:29;;;;;;;12.20;8.75;;;;;;;5.25;100.00;100614.88;5097319;28;20051;-70
2024/01/06 06:18:17;;;;;;;11.90;8.38;;;;;;;5.27;100.00;100618.16;5095819;28;20108;-70
2024/01/06 06:21:07;;;;;;;12.80;8.80;;;;;;;5.30;100.00;100625.78;5093210;28;20484;-70
2024/01/06 06:23:55;;;;;;;11.43;9.02;;;;;;;5.33;100.00;100628.00;5084419;28;20464;-69
2024/01/06 06:26:43;;;;;;;10.95;8.95;;;;;;;5.36;100.00;100641.03;5109471;28;20103;-68
2024/01/06 06:29:31;;;;;;;10.73;8.80;;;;;;;5.39;100.00;100642.41;5116599;28;20043;-69
2024/01/06 06:32:19;;;;;;;10.43;8.50;;;;;;;5.32;100.00;100645.28;5110633;28;20124;-69
2024/01/06 06:35:07;;;;;;;10.15;8.50;;;;;;;5.27;100.00;100645.16;5112023;28;20036;-70
2024/01/06 06:37:55;;;;;;;10.75;7.95;;;;;;;5.25;100.00;100647.28;5077826;28;20036;-70
2024/01/06 06:40:43;;;;;;;11.07;7.97;;;;;;;5.21;100.00;100651.50;5091547;28;20132;-68
2024/01/06 06:43:31;;;;;;;10.27;8.15;;;;;;;5.28;100.00;100657.59;5078583;28;20044;-67
2024/01/06 06:46:19;;;;;;;11.05;7.88;;;;;;;5.28;100.00;100665.72;5063452;28;20055;-68
2024/01/06 06:49:07;;;;;;;9.93;7.05;;;;;;;5.26;100.00;100670.53;5089546;28;20492;-69
2024/01/06 06:51:56;;;;;;;9.52;7.57;;;;;;;5.25;100.00;100674.28;5078141;28;20082;-69
2024/01/06 06:54:44;;;;;;;11.07;7.75;;;;;;;5.27;100.00;100683.00;5077488;28;20048;-69
2024/01/06 06:57:32;;;;;;;10.50;7.15;;;;;;;5.24;100.00;100688.84;5105348;28;20048;-69
2024/01/06 07:00:20;;;;;;;11.27;8.00;;;;;;;5.20;100.00;100690.38;4388646;27;9999930;-72
2024/01/06 07:03:09;;;;;;;11.68;8.48;;;;;;;5.07;100.00;100700.34;5084706;28;20566;-70
2024/01/06 07:05:57;;;;;;;12.25;7.57;;;;;;;4.99;100.00;100706.09;5114006;28;20054;-69
2024/01/06 07:08:45;;;;;;;11.95;7.88;;;;;;;4.99;100.00;100716.91;5124000;27;20047;-70
2024/01/06 07:11:33;;;;;;;11.48;7.63;;;;;;;4.99;100.00;100732.28;5109931;27;20157;-70
2024/01/06 07:14:21;;;;;;;10.32;6.82;;;;;;;4.91;100.00;100728.88;5110421;27;20043;-72
2024/01/06 07:17:09;;;;;;;10.75;7.00;;;;;;;4.89;100.00;100733.69;5113418;28;20051;-68
2024/01/06 07:19:57;;;;;;;9.98;7.15;;;;;;;4.91;100.00;100736.16;5129815;27;20051;-69
2024/01/06 07:22:45;;;;;;;9.98;6.45;;;;;;;4.85;100.00;100737.06;5093683;28;20047;-70
2024/01/06 07:25:33;;;;;;;10.50;7.20;;;;;;;4.82;100.00;100740.25;5112488;28;20134;-69
2024/01/06 07:28:21;;;;;;;10.15;7.20;;;;;;;4.76;100.00;100747.38;5103965;27;20062;-70
2024/01/06 07:31:09;;;;;;;10.65;7.20;;;;;;;4.66;100.00;100739.84;5118491;27;20054;-71
2024/01/06 07:33:57;;;;;;;10.40;7.43;;;;;;;4.64;100.00;100741.13;5068499;28;20504;-73
2024/01/06 07:36:45;;;;;;;9.98;7.53;;;;;;;4.58;100.00;100750.97;5112579;27;20671;-69
2024/01/06 07:39:33;;;;;;;11.90;7.57;;;;;;;4.61;100.00;100741.59;5089867;28;20047;-69
2024/01/06 07:42:22;;;;;;;10.48;7.75;;;;;;;4.64;100.00;100752.78;5096446;28;20130;-69
2024/01/06 07:45:10;;;;;;;9.70;7.30;;;;;;;4.61;100.00;100750.50;5111977;28;20047;-68
2024/01/06 07:47:59;;;;;;;12.10;7.55;;;;;;;4.61;100.00;100758.59;5064318;28;20129;-70
2024/01/06 07:50:47;;;;;;;11.38;7.25;;;;;;;4.52;100.00;100770.78;5096870;28;20047;-68
2024/01/06 07:53:35;;;;;;;11.55;7.75;;;;;;;4.39;100.00;100782.56;5111001;28;20138;-70
2024/01/06 07:56:24;;;;;;;12.35;7.40;;;;;;;4.37;100.00;100779.28;5111322;27;20078;-68
2024/01/06 07:59:12;;;;;;;10.85;7.03;;;;;;;4.32;100.00;100783.72;5104773;28;20067;-69
2024/01/06 08:02:00;;;;;;;11.65;7.10;;;;;;;4.36;100.00;100793.00;5111142;28;20048;-70
2024/01/06 08:04:48;;;;;;;10.30;6.82;;;;;;;4.38;100.00;100789.03;5114990;28;20139;-75
2024/01/06 08:07:36;;;;;;;9.80;6.78;;;;;;;4.33;100.00;100794.28;5111753;27;20088;-70
2024/01/06 08:10:24;;;;;;;10.02;7.05;;;;;;;4.23;100.00;100800.22;5148125;27;20098;-71
2024/01/06 08:13:12;;;;;;;9.82;7.00;;;;;;;4.27;100.00;100801.41;5079306;28;20052;-74
2024/01/06 08:16:00;;;;;;;11.70;7.03;;;;;;;4.29;100.00;100803.06;5123986;28;20040;-72
2024/01/06 08:18:48;;;;;;;11.98;7.45;;;;;;;4.24;100.00;100818.03;5099094;28;20050;-77
2024/01/06 08:21:37;;;;;;;10.02;7.30;;;;;;;4.21;100.00;100815.81;5122145;28;20138;-73
2024/01/06 08:24:25;;;;;;;14.32;7.55;;;;;;;4.29;100.00;100824.63;5111657;28;20450;-70
2024/01/06 08:27:13;;;;;;;10.35;7.07;;;;;;;4.40;100.00;100821.16;5102884;28;20078;-72
2024/01/06 08:30:02;;;;;;;11.10;7.13;;;;;;;4.39;100.00;100843.81;5112012;28;20051;-70
2024/01/06 08:32:52;;;;;;;10.30;7.00;;;;;;;4.31;100.00;100838.72;5085912;28;20051;-70
2024/01/06 08:35:40;;;;;;;9.60;6.43;;;;;;;4.37;100.00;100840.50;5114218;28;20396;-70
2024/01/06 08:38:28;;;;;;;12.82;7.60;;;;;;;4.46;100.00;100849.94;5100300;28;20401;-69
2024/01/06 08:41:16;;;;;;;10.70;7.03;;;;;;;4.38;100.00;100850.25;5086353;28;20044;-70
2024/01/06 08:44:04;;;;;;;11.50;6.72;;;;;;;4.37;100.00;100854.00;5114597;28;20063;-70
2024/01/06 08:46:52;;;;;;;10.23;6.88;;;;;;;4.35;100.00;100858.78;5094050;28;20055;-70
2024/01/06 08:49:40;;;;;;;10.25;7.00;;;;;;;4.33;100.00;100875.22;5093723;28;20060;-69
2024/01/06 08:52:28;;;;;;;10.13;6.55;;;;;;;4.30;100.00;100874.81;5090761;28;20051;-70
2024/01/06 08:55:16;;;;;;;10.50;6.57;;;;;;;4.35;100.00;100880.34;5112414;28;20483;-69
2024/01/06 08:58:05;;;;;;;11.35;6.28;;;;;;;4.35;100.00;100888.44;5065386;28;20047;-73
2024/01/06 09:00:53;;;;;;;10.40;6.57;;;;;;;4.32;100.00;100884.34;5094502;28;20051;-69
2024/01/06 09:03:41;;;;;;;9.82;6.32;;;;;;;4.33;100.00;100891.41;5069087;28;20130;-70
2024/01/06 09:06:29;;;;;;;9.35;6.30;;;;;;;4.26;100.00;100891.47;5085366;28;20047;-70
2024/01/06 09:09:17;;;;;;;10.85;6.70;;;;;;;4.28;100.00;100902.00;5108157;28;20077;-69
2024/01/06 09:12:06;;;;;;;10.65;6.95;;;;;;;4.26;100.00;100890.66;5113100;27;20039;-69
2024/01/06 09:14:54;;;;;;;12.05;6.05;;;;;;;4.24;100.00;100893.56;5102042;28;20051;-70
2024/01/06 09:17:42;;;;;;;11.30;6.95;;;;;;;4.29;100.00;100897.47;5103544;27;20039;-71
2024/01/06 09:20:30;;;;;;;11.30;6.60;;;;;;;4.31;100.00;100906.16;5109761;27;20056;-71
2024/01/06 09:23:19;;;;;;;12.48;7.03;;;;;;;4.36;100.00;100906.31;5114148;27;20039;-70
2024/01/06 09:26:11;;;;;;;11.30;6.65;;;;;;;4.39;100.00;100912.06;5118987;27;20055;-70
2024/01/06 09:28:59;;;;;;;11.50;6.80;;;;;;;4.29;100.00;100921.72;5117740;27;20040;-70
2024/01/06 09:31:47;;;;;;;11.77;6.55;;;;;;;4.27;100.00;100925.47;5078848;28;20048;-70
2024/01/06 09:34:35;;;;;;;10.93;6.85;;;;;;;4.27;100.00;100930.84;5092160;28;20044;-70
2024/01/06 09:37:27;;;;;;;10.57;6.45;;;;;;;4.27;100.00;100936.25;5092557;28;20090;-70
2024/01/06 09:40:22;;;;;;;10.23;6.57;;;;;;;4.19;100.00;100933.84;5092600;28;20047;-69
2024/01/06 09:43:11;;;;;;;15.15;7.10;;;;;;;4.08;100.00;100944.53;5088801;28;20044;-69
2024/01/06 09:46:26;;;;;;;10.05;6.95;;;;;;;4.07;100.00;100949.13;5112722;28;20052;-70
2024/01/06 09:49:15;;;;;;;11.20;6.65;;;;;;;4.08;100.00;100961.53;5112921;28;20053;-70
2024/01/06 09:52:12;;;;;;;11.05;7.53;;;;;;;4.05;100.00;100962.00;5099291;28;20051;-69
2024/01/06 09:55:03;;;;;;;11.73;7.90;;;;;;;3.90;100.00;100966.91;5079537;28;20058;-70
2024/01/06 09:57:51;;;;;;;11.77;7.20;;;;;;;3.88;100.00;100971.69;5099412;28;20492;-69
2024/01/06 10:00:39;;;;;;;9.07;6.60;;;;;;;3.75;100.00;100970.75;5088678;28;20043;-69
2024/01/06 10:03:27;;;;;;;10.93;6.72;;;;;;;3.83;100.00;100977.72;5112945;28;20416;-69
2024/01/06 10:06:16;;;;;;;11.30;6.93;;;;;;;4.02;100.00;100978.63;5104784;27;20043;-69
2024/01/06 10:09:05;;;;;;;10.18;6.53;;;;;;;4.18;100.00;100980.72;5087028;28;20075;-69
2024/01/06 10:11:56;;;;;;;9.48;6.25;;;;;;;4.23;100.00;100989.00;5109525;27;20157;-68
2024/01/06 10:14:44;;;;;;;10.02;6.47;;;;;;;4.31;100.00;100989.78;5114358;27;20511;-71
2024/01/06 10:17:33;;;;;;;12.82;7.03;;;;;;;4.37;100.00;100991.56;5112203;27;20048;-71
2024/01/06 10:20:21;;;;;;;10.52;6.38;;;;;;;4.33;100.00;100996.59;5111912;28;20048;-70
2024/01/06 10:23:09;;;;;;;12.18;6.65;;;;;;;4.19;100.00;100998.56;5085471;27;20118;-70
2024/01/06 10:25:57;;;;;;;12.18;7.07;;;;;;;4.14;100.00;101003.81;5103770;28;20040;-69
2024/01/06 10:28:50;;;;;;;11.18;7.25;;;;;;;4.10;100.00;101002.59;5101847;28;20042;-71
2024/01/06 10:31:39;;;;;;;11.27;6.80;;;;;;;4.12;100.00;101010.47;5111116;28;20126;-68
2024/01/06 10:34:27;;;;;;;10.75;6.38;;;;;;;4.13;100.00;101004.84;5090995;28;20127;-69
2024/01/06 10:37:17;;;;;;;11.50;6.63;;;;;;;4.18;100.00;100999.59;5096025;28;20153;-69
2024/01/06 10:40:16;;;;;;;11.52;7.30;;;;;;;4.03;100.00;101004.53;5097642;28;20043;-71
2024/01/06 10:43:04;;;;;;;10.68;6.75;;;;;;;4.06;100.00;100993.28;5082877;28;20039;-69
2024/01/06 10:45:55;;;;;;;10.18;6.68;;;;;;;4.09;100.00;101006.34;5095563;28;20103;-69
2024/01/06 10:48:45;;;;;;;11.35;6.80;;;;;;;4.17;100.00;101003.34;5064057;28;20435;-70
2024/01/06 10:51:34;;;;;;;10.85;7.00;;;;;;;4.24;100.00;101016.78;5062485;28;20048;-69
2024/01/06 10:54:23;;;;;;;13.38;7.20;;;;;;;4.30;100.00;101009.69;5094973;28;20083;-68
2024/01/06 10:57:11;;;;;;;11.98;7.05;;;;;;;4.33;100.00;101012.78;5095387;28;20050;-68
2024/01/06 11:00:00;;;;;;;12.40;6.60;;;;;;;4.33;100.00;101015.47;5111755;28;20511;-69
2024/01/06 11:02:48;;;;;;;9.70;6.32;;;;;;;4.31;100.00;101022.13;5111537;28;20047;-69
2024/01/06 11:05:37;;;;;;;9.57;6.25;;;;;;;4.19;100.00;101025.53;5096727;28;20047;-69
2024/01/06 11:08:26;;;;;;;10.65;7.13;;;;;;;4.20;100.00;101029.88;5096920;28;20388;-68
2024/01/06 11:11:14;;;;;;;10.60;7.03;;;;;;;4.12;100.00;101026.66;5097515;28;20514;-70
2024/01/06 11:14:25;;;;;;;11.15;7.03;;;;;;;3.95;100.00;101039.84;5062535;28;20424;-69
2024/01/06 11:17:13;;;;;;;10.85;6.85;;;;;;;3.84;100.00;101038.66;5096767;28;20085;-70
2024/01/06 11:20:06;;;;;;;9.10;6.30;;;;;;;3.87;100.00;101034.72;5102765;28;20086;-69
2024/01/06 11:22:56;;;;;;;11.40;7.25;;;;;;;3.92;100.00;101038.41;5096933;28;20415;-69
2024/01/06 11:25:44;;;;;;;10.88;6.68;;;;;;;3.95;100.00;101039.84;5075168;28;20079;-70
2024/01/06 11:28:34;;;;;;;11.07;6.60;;;;;;;4.00;100.00;101038.13;5107797;28;20393;-68
2024/01/06 11:31:22;;;;;;;11.15;6.60;;;;;;;4.08;100.00;101028.94;5099635;28;20075;-68
2024/01/06 11:34:21;;;;;;;10.68;6.15;;;;;;;4.18;100.00;101034.66;5092431;28;20047;-69
2024/01/06 11:37:09;;;;;;;9.10;6.32;;;;;;;4.22;100.00;101035.88;5077539;28;20044;-67
2024/01/06 11:39:57;;;;;;;10.20;6.38;;;;;;;4.23;100.00;101039.41;5096442;28;20062;-72
2024/01/06 11:42:49;;;;;;;11.15;6.90;;;;;;;4.21;100.00;101034.25;5112375;28;20051;-70
2024/01/06 11:45:39;;;;;;;9.95;6.28;;;;;;;4.27;100.00;101044.13;5092378;28;20496;-69
2024/01/06 11:48:31;;;;;;;10.85;6.85;;;;;;;4.22;100.00;101040.47;5080605;28;20539;-70
2024/01/06 11:51:19;;;;;;;11.27;7.38;;;;;;;4.16;100.00;101042.19;5067422;28;20047;-69
2024/01/06 11:54:09;;;;;;;12.05;7.82;;;;;;;4.14;100.00;101046.97;5079756;28;20044;-70
2024/01/06 11:56:57;;;;;;;10.50;7.38;;;;;;;4.07;100.00;101048.88;5091995;28;20116;-69
2024/01/06 11:59:46;;;;;;;11.75;7.75;;;;;;;4.00;100.00;101048.09;5084321;28;20082;-70
2024/01/06 12:02:34;;;;;;;12.02;7.53;;;;;;;3.99;100.00;101049.97;5114369;28;20047;-69
2024/01/06 12:05:24;;;;;;;10.63;7.30;;;;;;;4.00;100.00;101053.50;5100241;28;20046;-72
2024/01/06 12:08:12;;;;;;;12.02;7.57;;;;;;;3.91;100.00;101054.78;5101549;27;20077;-71
2024/01/06 12:11:03;;;;;;;11.88;7.90;;;;;;;3.82;100.00;101056.91;5113539;28;20112;-69
2024/01/06 12:13:51;;;;;;;12.13;7.78;;;;;;;3.83;100.00;101059.41;5113811;28;20046;-69
2024/01/06 12:16:39;;;;;;;10.63;7.75;;;;;;;3.84;100.00;101061.03;5127402;27;20055;-68
2024/01/06 12:19:27;;;;;;;10.43;7.50;;;;;;;3.83;100.00;101059.41;5105087;28;20054;-68
2024/01/06 12:22:16;;;;;;;11.65;8.15;;;;;;;3.93;100.00;101056.22;5107196;28;20039;-72
2024/01/06 12:25:06;;;;;;;12.57;8.25;;;;;;;3.95;100.00;101056.03;5098337;28;20048;-69
2024/01/06 12:27:54;;;;;;;10.55;7.80;;;;;;;3.98;100.00;101050.19;5128631;27;20607;-70
2024/01/06 12:30:42;;;;;;;11.00;7.57;;;;;;;3.91;100.00;101054.78;5129902;28;20043;-71
2024/01/06 12:33:32;;;;;;;11.70;8.00;;;;;;;3.87;100.00;101053.56;5082974;28;20048;-68
2024/01/06 12:36:21;;;;;;;12.18;8.25;;;;;;;3.71;100.00;101061.16;5115641;27;20502;-68
2024/01/06 12:39:14;;;;;;;13.15;8.25;;;;;;;3.79;100.00;101051.97;5109277;27;20065;-69
2024/01/06 12:42:02;;;;;;;10.55;7.40;;;;;;;3.67;100.00;101068.00;5132547;27;20048;-68
2024/01/06 12:44:50;;;;;;;11.38;6.97;;;;;;;3.65;100.00;101062.00;5101762;28;20047;-69
2024/01/06 12:47:39;;;;;;;13.02;7.82;;;;;;;3.66;100.00;101058.28;5090494;28;20079;-70
2024/01/06 12:50:27;;;;;;;10.68;7.35;;;;;;;3.75;100.00;101056.13;5065160;28;20105;-69
2024/01/06 12:53:17;;;;;;;11.30;7.43;;;;;;;3.85;100.00;101053.81;5102216;28;20491;-70
2024/01/06 12:56:07;;;;;;;10.55;6.95;;;;;;;3.95;100.00;101058.72;5095694;28;20069;-71
2024/01/06 12:58:55;;;;;;;9.35;6.47;;;;;;;3.77;100.00;101064.84;5086789;28;20032;-69